Pilot No 5 — WDC3840 — position and weather

sailwx.info

Track history (hours):
 
Tides and Currents Weather Stations Pressure Air Temp Water Temp Dewpoint Dewpoint Depression Visibility Wind Speed Wind Dir Waves Ship Positions

Pilot No 5

Owner: P E P INC, FT LAUDERDALE, FL. More information available from US FCC via Universal Licensing System and Coast Guard Vessel Documentation Center.

Last reported at 2016-Feb-05 22:20 UTC. Time now 2016-Feb-06 07:05 UTC.
Position N 26°06' W 080°06'.

Length 6 m.

Type: Pilot. MMSI: 367015090.

Date/timePositionNaut miles runAvg speedWind from/ knotsBaromVisibWave heightAir tempDewpointWater temp
2016-Feb-05 22:20N 26°06' W 080°06'1 0.1
2016-Feb-05 10:22N 26°05' W 080°04'1 0.9
2016-Feb-05 09:32N 26°05' W 080°04'1 0.9
2016-Feb-05 08:27N 26°06' W 080°05'  
2016-Feb-02 11:23N 26°06' W 080°07'3 3.2
2016-Feb-02 10:33N 26°06' W 080°04'3 2.6
2016-Feb-02 09:33N 26°05' W 080°07'5 5.4
2016-Feb-02 08:33N 26°06' W 080°01'2 1.6
2016-Feb-02 07:33N 26°05' W 080°03'2 1.5
2016-Feb-02 06:33N 26°05' W 080°04'2 1.0
2016-Feb-02 04:33N 26°06' W 080°06'1 0.4
2016-Feb-02 02:19N 26°06' W 080°07'1 1.0
2016-Feb-02 01:33N 26°06' W 080°07'0 0.2
2016-Feb-02 00:33N 26°05' W 080°07'1 0.5
2016-Feb-01 22:33N 26°06' W 080°06'1 0.7
2016-Feb-01 21:33N 26°05' W 080°05'1 0.1
2016-Feb-01 11:33N 26°06' W 080°04'2 2.0
2016-Feb-01 10:33N 26°06' W 080°06'1 1.1
2016-Feb-01 09:33N 26°06' W 080°05'1 1.2
2016-Feb-01 08:33N 26°06' W 080°06'1 0.6
2016-Feb-01 07:33N 26°06' W 080°06'1 1.4
2016-Feb-01 06:33N 26°06' W 080°07'0 0.4
2016-Feb-01 05:33N 26°06' W 080°07'0 0.1
2016-Feb-01 02:21N 26°06' W 080°07'2 3.1
2016-Feb-01 01:33N 26°06' W 080°05'2 1.2
2016-Jan-31 23:33N 26°06' W 080°07'2 2.2
2016-Jan-31 22:34N 26°05' W 080°05'0 0.5
2016-Jan-31 21:33N 26°06' W 080°06'2 1.8
2016-Jan-31 20:33N 26°06' W 080°07'0 0.0
2016-Jan-31 19:33N 26°06' W 080°07'0 0.0
2016-Jan-31 18:33N 26°06' W 080°07'0 0.0
2016-Jan-31 04:33N 26°06' W 080°07'0 0.0
2016-Jan-31 03:31N 26°06' W 080°07'0 0.0
2016-Jan-31 02:34N 26°06' W 080°07'3 3.1
2016-Jan-31 01:34N 26°06' W 080°04'1 0.8
2016-Jan-31 00:34N 26°07' W 080°03'2 2.4
2016-Jan-30 23:33N 26°06' W 080°06'0 0.2
2016-Jan-30 22:33N 26°06' W 080°06'1 0.8
2016-Jan-30 21:33N 26°05' W 080°07'1 0.8
2016-Jan-30 20:33N 26°06' W 080°07'0 0.0
2016-Jan-30 19:33N 26°06' W 080°07'0 0.0
2016-Jan-30 18:33N 26°06' W 080°07'0 0.0
2016-Jan-30 17:33N 26°06' W 080°07'0 0.0
2016-Jan-30 16:33N 26°06' W 080°07'1 0.9
2016-Jan-30 15:33N 26°06' W 080°07'1 1.1
2016-Jan-30 14:33N 26°05' W 080°07'4 4.3
2016-Jan-30 13:33N 26°06' W 080°02'3 2.8
2016-Jan-30 12:33N 26°06' W 080°05'1 1.1
2016-Jan-30 11:33N 26°06' W 080°07'5 5.0
2016-Jan-30 10:34N 26°06' W 080°01'6 5.6
2016-Jan-30 09:33N 26°05' W 080°07'0 0.2
2016-Jan-30 07:23N 26°06' W 080°07'2 1.9
2016-Jan-30 06:33N 26°04' W 080°07'1 0.7
2016-Jan-30 04:33N 26°06' W 080°06'1 0.5
2016-Jan-30 02:33N 26°06' W 080°07'1 1.4
2016-Jan-30 01:33N 26°06' W 080°06'1 1.4
2016-Jan-30 00:33N 26°06' W 080°07'3 2.5
2016-Jan-29 23:33N 26°07' W 080°05'2 2.5
2016-Jan-29 22:34N 26°06' W 080°07'2 1.9
2016-Jan-29 21:33N 26°06' W 080°05'2 2.3
2016-Jan-29 20:34N 26°06' W 080°07'1 0.8
2016-Jan-29 19:33N 26°06' W 080°07'1 0.3
2016-Jan-29 17:13N 26°06' W 080°07'0 0.0
2016-Jan-29 16:33N 26°06' W 080°07'3 2.7
2016-Jan-29 15:34N 26°06' W 080°04'1 1.4
2016-Jan-29 14:34N 26°06' W 080°06'1 0.7
2016-Jan-29 13:33N 26°06' W 080°07'1 0.8
2016-Jan-29 12:33N 26°06' W 080°07'0 0.0
2016-Jan-28 18:33N 26°06' W 080°07'0 0.0
2016-Jan-28 17:33N 26°06' W 080°07'0 0.0
2016-Jan-28 16:33N 26°06' W 080°07'0 0.0
2016-Jan-28 15:33N 26°06' W 080°07'0 0.0
2016-Jan-28 14:33N 26°06' W 080°07'0 0.0
2016-Jan-28 13:33N 26°06' W 080°07'0 0.0
2016-Jan-28 12:33N 26°06' W 080°07'0 0.0
2016-Jan-28 11:33N 26°06' W 080°07'0 0.0
2016-Jan-28 10:33N 26°06' W 080°07'0 0.0
2016-Jan-28 09:33N 26°06' W 080°07'0 0.0
2016-Jan-28 08:33N 26°06' W 080°07'0 0.0
2016-Jan-28 07:33N 26°06' W 080°07'0 0.0
2016-Jan-28 06:33N 26°06' W 080°07'0 0.0
2016-Jan-28 05:33N 26°06' W 080°07'0 0.0
2016-Jan-28 04:33N 26°06' W 080°07'0 0.0
2016-Jan-28 03:33N 26°06' W 080°07'0 0.0
2016-Jan-28 02:33N 26°06' W 080°07'0 0.0
2016-Jan-28 01:33N 26°06' W 080°07'0 0.0
2016-Jan-28 00:33N 26°06' W 080°07'0 0.0
2016-Jan-27 23:33N 26°06' W 080°07'0 0.0
2016-Jan-27 22:33N 26°06' W 080°07'0 0.0
2016-Jan-27 21:33N 26°06' W 080°07'0 0.0
2016-Jan-27 20:33N 26°06' W 080°07'0 0.0
2016-Jan-27 19:33N 26°06' W 080°07'0 0.0
2016-Jan-27 18:33N 26°06' W 080°07'0 0.0
2016-Jan-27 17:33N 26°06' W 080°07'0 0.0
2016-Jan-27 16:33N 26°06' W 080°07'0 0.0
2016-Jan-27 15:33N 26°06' W 080°07'0 0.0
2016-Jan-27 14:33N 26°06' W 080°07'0 0.0
2016-Jan-27 13:33N 26°06' W 080°07'  
Track history (hours):
 
Tides and Currents Weather Stations Pressure Air Temp Water Temp Dewpoint Dewpoint Depression Visibility Wind Speed Wind Dir Waves Ship Positions

Pilot No 5

Owner: P E P INC, FT LAUDERDALE, FL. More information available from US FCC via Universal Licensing System and Coast Guard Vessel Documentation Center.

Last reported at 2016-Feb-05 22:20 UTC. Time now 2016-Feb-06 07:05 UTC.
Position N 26°06' W 080°06'.

Length 6 m.

Type: Pilot. MMSI: 367015090.

Date/timePositionNaut miles runAvg speedWind from/ knotsBaromVisibWave heightAir tempDewpointWater temp
2016-Feb-05 22:20N 26°06' W 080°06'1 0.1
2016-Feb-05 10:22N 26°05' W 080°04'1 0.9
2016-Feb-05 09:32N 26°05' W 080°04'1 0.9
2016-Feb-05 08:27N 26°06' W 080°05'  
2016-Feb-02 11:23N 26°06' W 080°07'3 3.2
2016-Feb-02 10:33N 26°06' W 080°04'3 2.6
2016-Feb-02 09:33N 26°05' W 080°07'5 5.4
2016-Feb-02 08:33N 26°06' W 080°01'2 1.6
2016-Feb-02 07:33N 26°05' W 080°03'2 1.5
2016-Feb-02 06:33N 26°05' W 080°04'2 1.0
2016-Feb-02 04:33N 26°06' W 080°06'1 0.4
2016-Feb-02 02:19N 26°06' W 080°07'1 1.0
2016-Feb-02 01:33N 26°06' W 080°07'0 0.2
2016-Feb-02 00:33N 26°05' W 080°07'1 0.5
2016-Feb-01 22:33N 26°06' W 080°06'1 0.7
2016-Feb-01 21:33N 26°05' W 080°05'1 0.1
2016-Feb-01 11:33N 26°06' W 080°04'2 2.0
2016-Feb-01 10:33N 26°06' W 080°06'1 1.1
2016-Feb-01 09:33N 26°06' W 080°05'1 1.2
2016-Feb-01 08:33N 26°06' W 080°06'1 0.6
2016-Feb-01 07:33N 26°06' W 080°06'1 1.4
2016-Feb-01 06:33N 26°06' W 080°07'0 0.4
2016-Feb-01 05:33N 26°06' W 080°07'0 0.1
2016-Feb-01 02:21N 26°06' W 080°07'2 3.1
2016-Feb-01 01:33N 26°06' W 080°05'2 1.2
2016-Jan-31 23:33N 26°06' W 080°07'2 2.2
2016-Jan-31 22:34N 26°05' W 080°05'0 0.5
2016-Jan-31 21:33N 26°06' W 080°06'2 1.8
2016-Jan-31 20:33N 26°06' W 080°07'0 0.0
2016-Jan-31 19:33N 26°06' W 080°07'0 0.0
2016-Jan-31 18:33N 26°06' W 080°07'0 0.0
2016-Jan-31 04:33N 26°06' W 080°07'0 0.0
2016-Jan-31 03:31N 26°06' W 080°07'0 0.0
2016-Jan-31 02:34N 26°06' W 080°07'3 3.1
2016-Jan-31 01:34N 26°06' W 080°04'1 0.8
2016-Jan-31 00:34N 26°07' W 080°03'2 2.4
2016-Jan-30 23:33N 26°06' W 080°06'0 0.2
2016-Jan-30 22:33N 26°06' W 080°06'1 0.8
2016-Jan-30 21:33N 26°05' W 080°07'1 0.8
2016-Jan-30 20:33N 26°06' W 080°07'0 0.0
2016-Jan-30 19:33N 26°06' W 080°07'0 0.0
2016-Jan-30 18:33N 26°06' W 080°07'0 0.0
2016-Jan-30 17:33N 26°06' W 080°07'0 0.0
2016-Jan-30 16:33N 26°06' W 080°07'1 0.9
2016-Jan-30 15:33N 26°06' W 080°07'1 1.1
2016-Jan-30 14:33N 26°05' W 080°07'4 4.3
2016-Jan-30 13:33N 26°06' W 080°02'3 2.8
2016-Jan-30 12:33N 26°06' W 080°05'1 1.1
2016-Jan-30 11:33N 26°06' W 080°07'5 5.0
2016-Jan-30 10:34N 26°06' W 080°01'6 5.6
2016-Jan-30 09:33N 26°05' W 080°07'0 0.2
2016-Jan-30 07:23N 26°06' W 080°07'2 1.9
2016-Jan-30 06:33N 26°04' W 080°07'1 0.7
2016-Jan-30 04:33N 26°06' W 080°06'1 0.5
2016-Jan-30 02:33N 26°06' W 080°07'1 1.4
2016-Jan-30 01:33N 26°06' W 080°06'1 1.4
2016-Jan-30 00:33N 26°06' W 080°07'3 2.5
2016-Jan-29 23:33N 26°07' W 080°05'2 2.5
2016-Jan-29 22:34N 26°06' W 080°07'2 1.9
2016-Jan-29 21:33N 26°06' W 080°05'2 2.3
2016-Jan-29 20:34N 26°06' W 080°07'1 0.8
2016-Jan-29 19:33N 26°06' W 080°07'1 0.3
2016-Jan-29 17:13N 26°06' W 080°07'0 0.0
2016-Jan-29 16:33N 26°06' W 080°07'3 2.7
2016-Jan-29 15:34N 26°06' W 080°04'1 1.4
2016-Jan-29 14:34N 26°06' W 080°06'1 0.7
2016-Jan-29 13:33N 26°06' W 080°07'1 0.8
2016-Jan-29 12:33N 26°06' W 080°07'0 0.0
2016-Jan-28 18:33N 26°06' W 080°07'0 0.0
2016-Jan-28 17:33N 26°06' W 080°07'0 0.0
2016-Jan-28 16:33N 26°06' W 080°07'0 0.0
2016-Jan-28 15:33N 26°06' W 080°07'0 0.0
2016-Jan-28 14:33N 26°06' W 080°07'0 0.0
2016-Jan-28 13:33N 26°06' W 080°07'0 0.0
2016-Jan-28 12:33N 26°06' W 080°07'0 0.0
2016-Jan-28 11:33N 26°06' W 080°07'0 0.0
2016-Jan-28 10:33N 26°06' W 080°07'0 0.0
2016-Jan-28 09:33N 26°06' W 080°07'0 0.0
2016-Jan-28 08:33N 26°06' W 080°07'0 0.0
2016-Jan-28 07:33N 26°06' W 080°07'0 0.0
2016-Jan-28 06:33N 26°06' W 080°07'0 0.0
2016-Jan-28 05:33N 26°06' W 080°07'0 0.0
2016-Jan-28 04:33N 26°06' W 080°07'0 0.0
2016-Jan-28 03:33N 26°06' W 080°07'0 0.0
2016-Jan-28 02:33N 26°06' W 080°07'0 0.0
2016-Jan-28 01:33N 26°06' W 080°07'0 0.0
2016-Jan-28 00:33N 26°06' W 080°07'0 0.0
2016-Jan-27 23:33N 26°06' W 080°07'0 0.0
2016-Jan-27 22:33N 26°06' W 080°07'0 0.0
2016-Jan-27 21:33N 26°06' W 080°07'0 0.0
2016-Jan-27 20:33N 26°06' W 080°07'0 0.0
2016-Jan-27 19:33N 26°06' W 080°07'0 0.0
2016-Jan-27 18:33N 26°06' W 080°07'0 0.0
2016-Jan-27 17:33N 26°06' W 080°07'0 0.0
2016-Jan-27 16:33N 26°06' W 080°07'0 0.0
2016-Jan-27 15:33N 26°06' W 080°07'0 0.0
2016-Jan-27 14:33N 26°06' W 080°07'0 0.0
2016-Jan-27 13:33N 26°06' W 080°07'  

Dump ship's entire track history